Time;durP1;ratioP1;P1;durP2;ratioP2;P2;SDS_P1;SDS_P2;PMS_P1;PMS_P2;Temp;Humidity;BMP_temperature;BMP_pressure;BME280_temperature;BME280_humidity;BME280_pressure;Samples;Min_cycle;Max_cycle;Signal;HPM_P1;HPM_P2
2022/05/24 00:00:38;;;;;;;4.13;1.10;;;17.10;99.90;;;;;;5072225;28;20209;-68
2022/05/24 00:03:06;;;;;;;2.53;1.20;;;17.30;99.90;;;;;;5072353;28;20630;-68
2022/05/24 00:05:35;;;;;;;1.97;1.03;;;17.70;99.90;;;;;;5072265;28;20184;-68
2022/05/24 00:08:04;;;;;;;2.23;1.20;;;17.80;99.90;;;;;;5072041;28;20652;-68
2022/05/24 00:10:33;;;;;;;3.90;1.20;;;18.00;99.90;;;;;;5071691;28;20561;-68
2022/05/24 00:13:01;;;;;;;6.10;1.00;;;18.20;99.90;;;;;;5071755;28;20176;-68
2022/05/24 00:15:30;;;;;;;2.47;1.00;;;18.60;99.90;;;;;;5071309;28;20191;-68
2022/05/24 00:18:03;;;;;;;3.43;1.00;;;19.00;99.90;;;;;;5071376;28;20220;-69
2022/05/24 00:20:54;;;;;;;14.47;1.80;;;19.70;99.90;;;;;;5084413;28;20227;-69
2022/05/24 00:23:23;;;;;;;4.40;1.20;;;19.70;99.90;;;;;;5060979;28;20184;-68
2022/05/24 00:25:53;;;;;;;3.33;0.77;;;19.60;99.90;;;;;;5071127;28;20236;-68
2022/05/24 00:28:23;;;;;;;3.10;1.10;;;19.00;99.90;;;;;;5071692;28;20176;-68
2022/05/24 00:30:51;;;;;;;6.10;1.13;;;18.80;99.90;;;;;;5072089;28;20263;-68
2022/05/24 00:33:20;;;;;;;5.90;1.40;;;18.50;99.90;;;;;;5069933;28;20184;-67
2022/05/24 00:35:49;;;;;;;2.97;1.03;;;18.10;99.90;;;;;;5071817;28;20191;-68
2022/05/24 00:38:27;;;;;;;3.47;1.30;;;18.00;99.90;;;;;;5070986;28;20179;-68
2022/05/24 00:41:26;;;;;;;4.13;1.10;;;18.20;99.90;;;;;;5051960;28;20192;-67
2022/05/24 00:44:02;;;;;;;3.53;1.07;;;18.40;99.90;;;;;;5071665;28;20279;-68
2022/05/24 00:46:33;;;;;;;4.77;1.40;;;18.60;99.90;;;;;;5070914;28;20200;-69
2022/05/24 00:49:08;;;;;;;3.53;1.30;;;18.80;99.90;;;;;;5069567;28;20184;-68
2022/05/24 00:51:43;;;;;;;3.43;1.07;;;19.30;99.90;;;;;;5070636;28;20185;-68
2022/05/24 00:54:11;;;;;;;3.13;0.80;;;19.20;99.90;;;;;;5070976;28;20191;-68
2022/05/24 00:56:47;;;;;;;6.47;0.90;;;19.40;99.90;;;;;;5069741;28;20606;-68
2022/05/24 00:59:28;;;;;;;3.60;1.20;;;19.40;99.90;;;;;;5070232;28;20211;-68
2022/05/24 01:01:56;;;;;;;6.57;1.07;;;19.10;99.90;;;;;;5071376;28;20191;-68
2022/05/24 01:04:24;;;;;;;2.63;0.80;;;19.20;99.90;;;;;;5070391;28;20201;-68
2022/05/24 01:06:52;;;;;;;1.33;0.73;;;19.30;99.90;;;;;;5070893;28;20192;-69
2022/05/24 01:09:47;;;;;;;2.30;0.80;;;19.30;99.90;;;;;;5071259;28;20180;-69
2022/05/24 01:12:38;;;;;;;1.30;0.80;;;19.20;99.90;;;;;;5069936;28;20734;-67
2022/05/24 01:15:08;;;;;;;3.53;0.87;;;19.40;99.90;;;;;;5071176;28;20181;-68
2022/05/24 01:17:38;;;;;;;2.60;0.70;;;19.20;99.90;;;;;;5071051;28;20239;-68
2022/05/24 01:20:07;;;;;;;3.93;1.00;;;19.20;99.90;;;;;;5071043;28;20216;-68
2022/05/24 01:23:00;;;;;;;5.53;1.60;;;19.20;99.90;;;;;;5070824;28;20312;-68
2022/05/24 01:25:33;;;;;;;2.87;0.93;;;18.90;99.90;;;;;;5071158;28;20274;-68
2022/05/24 01:28:04;;;;;;;3.87;0.90;;;19.10;99.90;;;;;;5069793;28;20179;-68
2022/05/24 01:30:32;;;;;;;4.10;0.97;;;19.30;99.90;;;;;;5071353;28;20184;-67
2022/05/24 01:38:31;;;;;;;1.77;0.50;;;20.50;99.90;;;;;;5059718;28;20206;-67
2022/05/24 01:41:00;;;;;;;3.53;0.90;;;20.40;99.90;;;;;;5071258;28;20719;-67
2022/05/24 01:43:28;;;;;;;1.87;0.50;;;20.30;99.90;;;;;;5071071;28;20626;-67
2022/05/24 01:46:06;;;;;;;3.53;0.73;;;21.00;99.90;;;;;;5069266;28;20671;-67
2022/05/24 01:48:49;;;;;;;2.80;0.67;;;21.50;99.90;;;;;;5071557;28;20183;-68
2022/05/24 01:51:22;;;;;;;1.80;0.67;;;22.40;99.90;;;;;;5074391;28;20191;-67
2022/05/24 01:53:51;;;;;;;2.53;0.60;;;23.00;99.90;;;;;;5074574;28;20278;-69
2022/05/24 01:56:28;;;;;;;2.17;0.60;;;23.00;99.90;;;;;;5074452;28;20238;-69
2022/05/24 01:58:59;;;;;;;1.30;0.40;;;22.50;99.90;;;;;;5072349;28;20211;-69
2022/05/24 02:01:58;;;;;;;3.87;0.63;;;23.10;99.90;;;;;;5074454;28;20207;-69
2022/05/24 02:04:27;;;;;;;0.57;0.40;;;22.50;99.90;;;;;;5073257;28;20551;-70
2022/05/24 02:07:03;;;;;;;3.37;0.90;;;21.90;99.90;;;;;;5074209;28;20252;-69
2022/05/24 02:09:31;;;;;;;2.03;0.70;;;22.70;99.90;;;;;;5073707;28;20266;-69
2022/05/24 02:12:04;;;;;;;1.90;0.60;;;22.80;99.90;;;;;;5072854;28;20195;-69
2022/05/24 02:14:36;;;;;;;1.57;0.60;;;22.60;99.90;;;;;;5074501;28;20207;-70
2022/05/24 02:17:21;;;;;;;2.03;0.57;;;23.20;99.90;;;;;;5066263;28;20236;-71
2022/05/24 02:19:53;;;;;;;0.70;0.47;;;22.50;99.90;;;;;;5063070;28;20215;-69
2022/05/24 02:22:26;;;;;;;2.20;0.60;;;21.70;99.90;;;;;;5072134;28;20310;-69
2022/05/24 02:25:05;;;;;;;0.77;0.40;;;21.60;99.90;;;;;;5058443;28;20203;-70
2022/05/24 02:27:38;;;;;;;0.67;0.40;;;21.60;99.90;;;;;;5074402;28;20680;-70
2022/05/24 02:30:06;;;;;;;4.13;0.50;;;20.90;99.90;;;;;;5073635;28;20233;-69
2022/05/24 02:32:33;;;;;;;1.33;0.73;;;21.40;99.90;;;;;;5072080;28;20675;-69
2022/05/24 02:35:00;;;;;;;2.67;0.57;;;21.70;99.90;;;;;;5073930;28;20664;-69
2022/05/24 02:37:28;;;;;;;2.53;0.40;;;21.60;99.90;;;;;;5073883;28;20187;-68
2022/05/24 02:42:40;;;;;;;1.77;0.60;;;21.30;99.90;;;;;;5073603;28;20689;-67
2022/05/24 02:45:08;;;;;;;0.50;0.30;;;21.60;99.90;;;;;;5073132;28;20214;-68
2022/05/24 02:47:36;;;;;;;2.20;0.60;;;21.30;99.90;;;;;;5073660;28;20227;-69
2022/05/24 02:50:05;;;;;;;1.50;0.40;;;21.10;99.90;;;;;;5073548;28;20214;-69
2022/05/24 02:52:32;;;;;;;0.30;0.30;;;21.20;99.90;;;;;;5053723;28;20817;-70
2022/05/24 02:55:00;;;;;;;1.80;0.73;;;22.10;99.90;;;;;;5058205;28;20187;-69
2022/05/24 02:57:27;;;;;;;2.63;0.57;;;22.20;99.90;;;;;;5071825;28;20566;-69
2022/05/24 02:59:54;;;;;;;1.20;0.30;;;22.20;99.90;;;;;;5071714;28;20223;-69
2022/05/24 03:02:22;;;;;;;1.33;0.30;;;21.50;99.90;;;;;;5072789;28;20642;-69
2022/05/24 03:04:49;;;;;;;0.80;0.50;;;21.30;99.90;;;;;;5073013;28;20192;-69
2022/05/24 03:10:01;;;;;;;2.40;0.57;;;21.00;99.90;;;;;;5073361;28;20233;-68
2022/05/24 03:15:14;;;;;;;1.40;0.40;;;20.90;99.90;;;;;;5072957;28;20568;-68
2022/05/24 03:17:41;;;;;;;0.20;0.20;;;20.80;99.90;;;;;;5073055;28;20630;-68
2022/05/24 03:20:09;;;;;;;1.40;0.30;;;21.00;99.90;;;;;;5072677;28;20264;-67
2022/05/24 03:22:37;;;;;;;1.40;0.40;;;20.90;99.90;;;;;;5072832;28;20241;-69
2022/05/24 03:25:04;;;;;;;1.07;0.50;;;21.00;99.90;;;;;;5073027;28;20596;-69
2022/05/24 03:27:32;;;;;;;3.33;0.70;;;20.80;99.90;;;;;;5073081;28;20282;-69
2022/05/24 03:29:59;;;;;;;1.90;0.50;;;20.70;99.90;;;;;;5071377;28;20725;-68
2022/05/24 03:32:26;;;;;;;1.20;0.50;;;20.70;99.90;;;;;;5072478;28;20176;-68
2022/05/24 03:34:54;;;;;;;1.70;0.60;;;20.60;99.90;;;;;;5072795;28;20929;-69
2022/05/24 03:37:21;;;;;;;3.30;0.50;;;20.40;99.90;;;;;;5072499;28;20814;-68
2022/05/24 03:39:48;;;;;;;2.27;0.53;;;20.30;99.90;;;;;;5071986;28;20228;-69
2022/05/24 03:42:16;;;;;;;1.37;0.57;;;20.10;99.90;;;;;;5072549;28;20285;-68
2022/05/24 03:44:43;;;;;;;1.27;0.60;;;20.00;99.90;;;;;;5072522;28;20321;-68
2022/05/24 03:47:10;;;;;;;2.80;0.57;;;20.10;99.90;;;;;;5072015;28;20967;-69
2022/05/24 03:49:37;;;;;;;2.73;0.53;;;20.60;99.90;;;;;;5072732;28;20188;-69
2022/05/24 03:52:05;;;;;;;3.90;0.80;;;21.10;99.90;;;;;;5072136;28;20681;-69
2022/05/24 03:54:32;;;;;;;2.57;0.50;;;21.20;99.90;;;;;;5071922;28;20190;-69
2022/05/24 03:59:46;;;;;;;0.83;0.50;;;20.50;99.90;;;;;;5072061;28;20219;-69
2022/05/24 04:02:13;;;;;;;3.33;0.70;;;20.00;99.90;;;;;;5072216;28;20806;-68
2022/05/24 04:04:41;;;;;;;0.30;0.30;;;19.90;99.90;;;;;;5072106;28;20199;-68
2022/05/24 04:07:08;;;;;;;5.13;0.97;;;19.50;99.90;;;;;;5072077;28;20266;-69
2022/05/24 04:09:36;;;;;;;0.73;0.40;;;19.40;99.90;;;;;;5072020;28;20296;-69
2022/05/24 04:12:04;;;;;;;4.97;0.80;;;19.40;99.90;;;;;;5070040;28;20543;-69
2022/05/24 04:14:33;;;;;;;2.03;0.70;;;19.50;99.90;;;;;;5071835;28;20192;-69
2022/05/24 04:17:01;;;;;;;3.83;1.00;;;19.50;99.90;;;;;;5071639;28;20256;-69
2022/05/24 04:19:28;;;;;;;2.90;0.70;;;19.50;99.90;;;;;;5071999;28;20222;-69
2022/05/24 04:21:56;;;;;;;1.80;0.67;;;19.40;99.90;;;;;;5071962;28;20506;-67
2022/05/24 04:24:23;;;;;;;6.70;0.67;;;19.40;99.90;;;;;;5071951;28;20313;-69
2022/05/24 04:26:51;;;;;;;2.50;0.70;;;19.20;99.90;;;;;;5071526;28;20623;-68
2022/05/24 04:29:18;;;;;;;2.03;0.70;;;19.20;99.90;;;;;;5071942;28;20180;-67
2022/05/24 04:31:45;;;;;;;1.13;0.60;;;19.20;99.90;;;;;;5070975;28;20232;-68
2022/05/24 04:34:14;;;;;;;3.23;0.90;;;19.10;99.90;;;;;;5071551;28;20270;-70
2022/05/24 04:36:41;;;;;;;4.50;0.90;;;19.00;99.90;;;;;;5071310;28;20188;-69
2022/05/24 04:39:08;;;;;;;1.83;0.47;;;19.00;99.90;;;;;;5071715;28;20669;-68
2022/05/24 04:44:21;;;;;;;3.17;0.90;;;19.10;99.90;;;;;;5071783;28;20238;-68
2022/05/24 04:49:34;;;;;;;2.00;0.80;;;18.90;99.90;;;;;;5071430;28;20889;-68
2022/05/24 04:52:01;;;;;;;1.70;0.60;;;18.90;99.90;;;;;;5071020;28;20187;-70
2022/05/24 04:54:29;;;;;;;5.70;1.00;;;18.80;99.90;;;;;;5059690;28;20196;-69
2022/05/24 04:56:56;;;;;;;3.57;0.73;;;18.90;99.90;;;;;;5071264;28;20246;-69
2022/05/24 04:59:24;;;;;;;3.70;0.73;;;18.90;99.90;;;;;;5070286;28;20216;-70
2022/05/24 05:01:51;;;;;;;1.10;0.83;;;19.00;99.90;;;;;;5071570;28;20194;-69
2022/05/24 05:04:20;;;;;;;1.83;0.80;;;19.30;99.90;;;;;;5071108;28;20187;-70
2022/05/24 05:06:48;;;;;;;5.53;0.90;;;19.80;99.90;;;;;;5070389;28;20189;-70
2022/05/24 05:09:16;;;;;;;2.43;0.77;;;20.40;99.90;;;;;;5071726;28;20231;-70
2022/05/24 05:11:43;;;;;;;2.67;1.00;;;20.30;99.90;;;;;;5072641;28;20192;-69
2022/05/24 05:14:11;;;;;;;5.33;1.07;;;19.80;99.90;;;;;;5069378;28;20172;-70
2022/05/24 05:16:40;;;;;;;3.00;0.73;;;20.10;99.90;;;;;;5069953;28;20764;-69
2022/05/24 05:19:11;;;;;;;2.03;1.10;;;20.30;99.90;;;;;;5071249;28;20247;-69
2022/05/24 05:21:40;;;;;;;3.60;1.00;;;20.20;99.90;;;;;;5071568;28;20205;-69
2022/05/24 05:24:08;;;;;;;3.07;1.23;;;19.50;99.90;;;;;;5072918;28;20184;-70
2022/05/24 05:26:36;;;;;;;5.13;1.20;;;18.90;99.90;;;;;;5073688;28;20569;-70
2022/05/24 05:29:04;;;;;;;2.90;1.00;;;18.50;99.90;;;;;;5075309;28;20185;-69
2022/05/24 05:31:32;;;;;;;5.30;1.20;;;18.20;99.90;;;;;;5075247;28;20194;-70
2022/05/24 05:34:01;;;;;;;8.03;1.47;;;18.00;99.90;;;;;;5075117;28;20180;-70
2022/05/24 05:36:30;;;;;;;1.70;1.10;;;17.90;99.90;;;;;;5074928;28;20174;-69
2022/05/24 05:38:58;;;;;;;4.57;1.27;;;17.80;99.90;;;;;;5075034;28;20231;-69
2022/05/24 05:41:29;;;;;;;5.07;1.17;;;17.70;99.90;;;;;;5074963;28;20189;-70
2022/05/24 05:43:58;;;;;;;2.67;1.00;;;17.60;99.90;;;;;;5075299;28;20237;-70
2022/05/24 05:46:25;;;;;;;1.23;0.60;;;17.50;99.90;;;;;;5074906;28;20183;-70
2022/05/24 05:48:53;;;;;;;7.67;1.30;;;17.50;99.90;;;;;;5074842;28;20176;-70
2022/05/24 05:51:20;;;;;;;3.80;1.03;;;17.40;99.90;;;;;;5074817;28;20184;-70
2022/05/24 05:53:48;;;;;;;3.43;1.07;;;17.40;99.90;;;;;;5074991;28;20191;-70
2022/05/24 05:56:22;;;;;;;2.27;1.20;;;17.30;99.90;;;;;;5074485;28;20190;-69
2022/05/24 05:58:50;;;;;;;4.20;1.33;;;17.20;99.90;;;;;;5073339;28;20213;-71
2022/05/24 06:01:29;;;;;;;4.40;1.13;;;17.20;99.90;;;;;;5073285;28;20226;-70
2022/05/24 06:03:58;;;;;;;3.60;1.30;;;17.10;99.90;;;;;;5074352;28;20168;-69
2022/05/24 06:06:29;;;;;;;5.73;1.50;;;17.10;99.90;;;;;;5074447;28;20230;-70
2022/05/24 06:08:56;;;;;;;5.83;1.60;;;17.00;99.90;;;;;;5074490;28;20581;-70
2022/05/24 06:11:24;;;;;;;6.27;1.37;;;17.00;99.90;;;;;;5074510;28;20172;-69
2022/05/24 06:13:51;;;;;;;3.97;1.63;;;16.80;99.90;;;;;;5073931;28;20180;-70
2022/05/24 06:16:19;;;;;;;4.90;1.10;;;16.80;99.90;;;;;;5073909;28;20283;-69
2022/05/24 06:18:47;;;;;;;2.43;0.97;;;16.70;99.90;;;;;;5074027;28;20204;-68
2022/05/24 06:21:15;;;;;;;7.23;1.50;;;16.60;99.90;;;;;;5073909;28;20213;-69
2022/05/24 06:23:42;;;;;;;4.27;1.30;;;16.50;99.90;;;;;;5074067;28;20227;-69
2022/05/24 06:26:10;;;;;;;6.80;1.63;;;16.40;99.90;;;;;;5074210;28;20240;-69
2022/05/24 06:28:37;;;;;;;2.37;1.20;;;16.40;99.90;;;;;;5073837;28;20183;-69
2022/05/24 06:31:05;;;;;;;3.03;1.20;;;16.30;99.90;;;;;;5073891;28;20190;-69
2022/05/24 06:33:32;;;;;;;4.27;1.30;;;16.10;99.90;;;;;;5073999;28;20197;-69
2022/05/24 06:35:59;;;;;;;1.83;1.13;;;16.10;99.90;;;;;;5072336;28;20176;-69
2022/05/24 06:38:27;;;;;;;2.43;1.50;;;16.00;99.90;;;;;;5073846;28;20209;-70
2022/05/24 06:40:54;;;;;;;3.03;1.10;;;15.80;99.90;;;;;;5072452;28;20191;-70
2022/05/24 06:43:21;;;;;;;3.70;1.60;;;15.70;99.90;;;;;;5073979;28;20171;-69
2022/05/24 06:45:49;;;;;;;2.40;1.43;;;15.60;99.90;;;;;;5072236;28;20238;-69
2022/05/24 06:48:16;;;;;;;4.63;1.50;;;15.60;99.90;;;;;;5071315;28;20251;-69
2022/05/24 06:50:44;;;;;;;4.93;1.43;;;15.50;99.90;;;;;;5072044;28;20214;-69
2022/05/24 06:53:11;;;;;;;5.40;1.63;;;15.40;99.90;;;;;;5071914;28;20179;-69
2022/05/24 06:55:39;;;;;;;4.17;1.43;;;15.30;99.90;;;;;;5071720;28;20276;-69
2022/05/24 06:58:07;;;;;;;4.63;1.57;;;15.20;99.90;;;;;;5071526;28;20180;-70
2022/05/24 07:03:19;;;;;;;5.23;2.00;;;15.00;99.90;;;;;;5073354;28;20187;-69
2022/05/24 07:05:47;;;;;;;6.43;1.60;;;14.90;99.90;;;;;;5073481;28;20187;-70
2022/05/24 07:08:15;;;;;;;5.10;2.00;;;14.80;99.90;;;;;;5072952;28;20622;-70
2022/05/24 07:10:42;;;;;;;3.10;1.50;;;14.80;99.90;;;;;;5072914;28;20186;-70
2022/05/24 07:13:12;;;;;;;6.13;1.93;;;14.70;99.90;;;;;;5073365;28;20565;-70
2022/05/24 07:15:40;;;;;;;6.70;1.97;;;14.60;99.90;;;;;;5073359;28;20267;-69
2022/05/24 07:18:07;;;;;;;5.60;2.20;;;14.60;99.90;;;;;;5072701;28;20330;-69
2022/05/24 07:20:39;;;;;;;5.30;2.17;;;14.60;99.90;;;;;;5073234;28;20669;-69
2022/05/24 07:23:14;;;;;;;3.07;1.70;;;14.50;99.90;;;;;;5073230;28;20180;-69
2022/05/24 07:25:43;;;;;;;3.47;2.20;;;14.40;99.90;;;;;;5073241;28;20211;-70
2022/05/24 07:28:12;;;;;;;4.70;2.43;;;14.30;99.90;;;;;;5071392;28;20552;-70
2022/05/24 07:30:40;;;;;;;4.67;1.80;;;14.20;99.90;;;;;;5072656;28;20184;-70
2022/05/24 07:33:08;;;;;;;3.83;2.23;;;14.20;99.90;;;;;;5072823;28;20188;-70
2022/05/24 07:35:36;;;;;;;4.43;1.83;;;14.10;99.90;;;;;;5072947;28;20266;-69
2022/05/24 07:38:05;;;;;;;5.03;2.17;;;14.10;99.90;;;;;;5072960;28;20176;-69
2022/05/24 07:46:09;;;;;;;3.83;2.10;;;14.00;99.90;;;;;;5072697;28;20179;-69
2022/05/24 07:48:37;;;;;;;7.57;2.63;;;14.00;99.90;;;;;;5072449;28;20176;-69
2022/05/24 07:51:05;;;;;;;7.73;2.53;;;13.90;99.90;;;;;;5072282;28;20186;-69
2022/05/24 07:53:33;;;;;;;3.53;2.50;;;13.90;99.90;;;;;;5072335;28;20253;-68
2022/05/24 07:56:01;;;;;;;5.20;2.57;;;13.90;99.90;;;;;;5072414;28;20177;-69
2022/05/24 07:58:29;;;;;;;7.70;2.90;;;13.90;99.90;;;;;;5072549;28;20685;-69
2022/05/24 08:00:58;;;;;;;3.60;2.43;;;13.80;99.90;;;;;;5072200;28;20255;-69
2022/05/24 08:03:27;;;;;;;4.73;2.60;;;13.80;99.90;;;;;;5070289;28;20332;-69
2022/05/24 08:05:54;;;;;;;6.23;2.87;;;13.70;99.90;;;;;;5059504;28;20269;-69
2022/05/24 08:08:23;;;;;;;4.90;3.27;;;13.70;99.90;;;;;;5072356;28;20172;-69
2022/05/24 08:10:50;;;;;;;5.67;2.60;;;13.60;99.90;;;;;;5072245;28;20175;-68
2022/05/24 08:13:19;;;;;;;5.10;2.70;;;13.60;99.90;;;;;;5072285;28;20176;-69
2022/05/24 08:15:50;;;;;;;6.90;3.60;;;13.60;99.90;;;;;;5072077;28;20176;-69
2022/05/24 08:18:17;;;;;;;5.53;3.10;;;13.50;99.90;;;;;;5071993;28;20672;-69
2022/05/24 08:20:45;;;;;;;13.43;3.40;;;13.40;99.90;;;;;;5071982;28;20218;-69
2022/05/24 08:23:12;;;;;;;4.67;2.77;;;13.40;99.90;;;;;;5072132;28;20175;-69
2022/05/24 08:25:40;;;;;;;6.77;2.97;;;13.30;99.90;;;;;;5077831;28;20179;-69
2022/05/24 08:28:08;;;;;;;14.30;3.87;;;13.30;99.90;;;;;;5092204;28;20207;-70
2022/05/24 08:30:38;;;;;;;12.57;4.00;;;13.30;99.90;;;;;;5077155;28;20199;-69
2022/05/24 08:33:06;;;;;;;11.17;4.80;;;13.30;99.90;;;;;;5072076;28;20179;-69
2022/05/24 08:35:35;;;;;;;6.17;4.10;;;13.30;99.90;;;;;;5055642;28;20188;-70
2022/05/24 08:38:05;;;;;;;10.70;5.20;;;13.30;99.90;;;;;;5067644;28;20237;-69
2022/05/24 08:40:39;;;;;;;12.23;5.50;;;13.20;99.90;;;;;;5071669;28;20224;-70
2022/05/24 08:43:12;;;;;;;12.53;7.67;;;13.20;99.90;;;;;;5070306;28;20670;-68
2022/05/24 08:49:13;;;;;;;8.40;5.00;;;13.10;99.90;;;;;;5057061;28;20275;-69
2022/05/24 08:51:52;;;;;;;10.00;5.20;;;13.10;99.90;;;;;;5047005;28;20268;-70
2022/05/24 08:54:42;;;;;;;8.87;4.90;;;13.10;99.90;;;;;;5051789;28;20214;-69
2022/05/24 08:57:42;;;;;;;8.50;4.93;;;13.10;99.90;;;;;;5068687;28;20188;-69
2022/05/24 09:00:26;;;;;;;6.67;4.77;;;13.10;99.90;;;;;;5075061;28;20216;-69
2022/05/24 09:02:53;;;;;;;9.93;4.27;;;13.20;99.90;;;;;;5075671;28;20202;-69
2022/05/24 09:05:34;;;;;;;11.17;5.17;;;13.20;99.90;;;;;;5074610;28;20180;-70
2022/05/24 09:08:25;;;;;;;8.50;5.27;;;13.20;99.90;;;;;;5075596;28;20190;-69
2022/05/24 09:11:09;;;;;;;13.13;5.37;;;13.20;99.90;;;;;;5075698;28;20187;-69
2022/05/24 09:13:54;;;;;;;7.90;5.57;;;13.10;99.90;;;;;;5075794;28;20179;-68
2022/05/24 09:16:39;;;;;;;8.43;6.17;;;13.10;99.90;;;;;;5075241;28;20215;-69
2022/05/24 09:19:28;;;;;;;11.87;5.90;;;13.00;99.90;;;;;;5075544;28;20234;-68
2022/05/24 09:21:55;;;;;;;16.60;6.07;;;13.00;99.90;;;;;;5084419;28;20687;-70
2022/05/24 09:24:42;;;;;;;7.83;5.20;;;12.90;99.90;;;;;;5093409;28;20212;-70
2022/05/24 09:27:22;;;;;;;9.40;5.83;;;12.90;99.90;;;;;;5074877;28;20187;-70
2022/05/24 09:29:57;;;;;;;8.73;5.33;;;12.90;99.90;;;;;;5075049;28;20175;-71
2022/05/24 09:32:48;;;;;;;9.60;5.43;;;12.90;99.90;;;;;;5074957;28;20187;-70
2022/05/24 09:35:19;;;;;;;10.40;5.90;;;12.80;99.90;;;;;;5075141;28;20176;-69
2022/05/24 09:38:08;;;;;;;10.77;5.30;;;12.80;99.90;;;;;;5075013;28;20184;-69
2022/05/24 09:40:46;;;;;;;9.13;5.27;;;12.80;99.90;;;;;;5074606;28;20756;-70
2022/05/24 09:43:35;;;;;;;12.33;5.87;;;12.90;99.90;;;;;;5073388;28;20202;-69
2022/05/24 09:46:13;;;;;;;12.57;6.60;;;12.90;99.90;;;;;;5071660;28;20214;-70
2022/05/24 09:48:53;;;;;;;11.43;5.80;;;12.90;99.90;;;;;;5073161;28;20178;-69
2022/05/24 09:51:32;;;;;;;7.53;5.07;;;12.80;99.90;;;;;;5072994;28;20628;-70
2022/05/24 09:53:59;;;;;;;7.90;5.30;;;12.70;99.90;;;;;;5053052;28;20181;-70
2022/05/24 09:56:35;;;;;;;8.00;5.13;;;12.70;99.90;;;;;;5052976;28;20223;-70
2022/05/24 09:59:05;;;;;;;7.03;5.30;;;12.60;99.90;;;;;;5051644;28;20270;-70
2022/05/24 10:01:43;;;;;;;7.67;4.93;;;12.60;99.90;;;;;;5054692;28;20617;-69
2022/05/24 10:04:29;;;;;;;7.83;5.80;;;12.50;99.90;;;;;;5073719;28;20215;-69
2022/05/24 10:07:03;;;;;;;8.20;4.73;;;12.50;99.90;;;;;;5072780;28;20187;-69
2022/05/24 10:09:59;;;;;;;6.53;4.53;;;12.50;99.90;;;;;;5072935;28;20266;-69
2022/05/24 10:12:47;;;;;;;8.70;4.93;;;12.50;99.90;;;;;;5073201;28;20183;-69
2022/05/24 10:15:21;;;;;;;10.10;5.03;;;12.50;99.90;;;;;;5062967;28;20233;-69
2022/05/24 10:18:13;;;;;;;8.97;5.53;;;12.50;99.90;;;;;;5058971;28;20739;-68
2022/05/24 10:20:49;;;;;;;10.47;5.20;;;12.50;99.90;;;;;;5074223;28;20229;-70
2022/05/24 10:23:42;;;;;;;6.57;4.97;;;12.40;99.90;;;;;;5073653;28;20186;-67
2022/05/24 10:26:41;;;;;;;7.70;5.67;;;12.40;99.90;;;;;;5074104;28;20187;-71
2022/05/24 10:29:38;;;;;;;11.40;6.03;;;12.40;99.90;;;;;;5074041;28;20278;-69
2022/05/24 10:38:17;;;;;;;9.63;5.37;;;12.40;99.90;;;;;;5074104;28;20278;-69
2022/05/24 10:38:24;;;;;;;10.97;6.07;;;12.50;99.90;;;;;;5059445;28;20239;-70
2022/05/24 10:41:24;;;;;;;7.27;5.40;;;12.50;99.90;;;;;;5073383;28;20249;-69
2022/05/24 10:43:52;;;;;;;8.77;4.93;;;12.50;99.90;;;;;;5068976;28;20179;-70
2022/05/24 10:46:32;;;;;;;10.33;5.23;;;12.60;99.90;;;;;;5074747;28;20598;-69
2022/05/24 10:49:27;;;;;;;8.47;5.97;;;12.70;99.90;;;;;;5075017;28;20175;-71
2022/05/24 10:52:06;;;;;;;5.50;4.63;;;12.80;99.90;;;;;;5073562;28;20558;-70
2022/05/24 10:54:38;;;;;;;9.80;5.33;;;12.80;99.90;;;;;;5073410;28;20191;-70
2022/05/24 10:57:41;;;;;;;5.77;4.40;;;12.90;99.90;;;;;;5074450;28;20180;-70
2022/05/24 11:00:15;;;;;;;6.73;4.17;;;13.00;99.90;;;;;;5074532;28;20211;-70
2022/05/24 11:02:46;;;;;;;13.83;5.27;;;13.00;99.90;;;;;;5075353;28;20190;-70
2022/05/24 11:05:20;;;;;;;12.93;4.97;;;13.10;99.90;;;;;;5075073;28;20204;-70
2022/05/24 11:07:59;;;;;;;7.40;4.30;;;13.10;99.90;;;;;;5073092;28;20227;-70
2022/05/24 11:10:30;;;;;;;8.03;4.33;;;13.10;99.90;;;;;;5054929;28;20653;-71
2022/05/24 11:13:11;;;;;;;6.90;5.00;;;13.10;99.90;;;;;;5071707;28;20245;-70
2022/05/24 11:15:46;;;;;;;8.73;4.63;;;13.00;99.90;;;;;;5071893;28;20679;-70
2022/05/24 11:18:22;;;;;;;9.77;4.80;;;12.90;99.90;;;;;;5074089;28;20259;-70
2022/05/24 11:21:07;;;;;;;8.10;4.60;;;12.80;99.90;;;;;;5072996;28;20222;-70
2022/05/24 11:23:54;;;;;;;6.17;3.83;;;12.80;99.90;;;;;;5074250;28;20204;-70
2022/05/24 11:26:29;;;;;;;9.50;5.33;;;12.70;99.90;;;;;;5074801;28;20175;-70
2022/05/24 11:29:11;;;;;;;9.93;4.83;;;12.70;99.90;;;;;;5073964;28;20265;-70
2022/05/24 11:31:50;;;;;;;7.03;5.07;;;12.60;99.90;;;;;;5074257;28;20179;-70
2022/05/24 11:34:24;;;;;;;8.33;5.17;;;12.60;99.90;;;;;;5074280;28;20312;-70
2022/05/24 11:37:27;;;;;;;12.20;5.30;;;12.60;99.90;;;;;;5073729;28;20192;-70
2022/05/24 11:39:55;;;;;;;9.53;5.40;;;12.60;99.90;;;;;;5073775;28;20217;-70
2022/05/24 11:42:44;;;;;;;10.27;5.20;;;12.60;99.90;;;;;;5074103;28;20203;-70
2022/05/24 11:45:30;;;;;;;10.43;5.40;;;12.60;99.90;;;;;;5073482;28;20192;-69
2022/05/24 11:48:07;;;;;;;9.53;5.13;;;12.50;99.90;;;;;;5071759;28;20210;-69
2022/05/24 11:50:40;;;;;;;8.00;5.47;;;12.50;99.90;;;;;;5074056;28;20182;-70
2022/05/24 11:53:19;;;;;;;7.73;4.83;;;12.40;99.90;;;;;;5072550;28;20635;-70
2022/05/24 11:55:56;;;;;;;7.57;4.80;;;12.40;99.90;;;;;;5073966;28;20178;-70
2022/05/24 11:58:43;;;;;;;7.90;5.10;;;12.30;99.90;;;;;;5073288;28;20511;-70
2022/05/24 12:01:10;;;;;;;8.00;4.87;;;12.20;99.90;;;;;;5073882;28;20191;-71
2022/05/24 12:10:06;;;;;;;9.13;5.40;;;12.10;99.90;;;;;;5073467;28;20194;-71
2022/05/24 12:12:47;;;;;;;8.33;5.10;;;12.10;99.90;;;;;;5072303;28;20560;-70
2022/05/24 12:15:46;;;;;;;8.10;5.17;;;12.10;99.90;;;;;;5073586;28;20171;-70
2022/05/24 12:18:20;;;;;;;9.33;5.30;;;12.10;99.90;;;;;;5072909;28;20256;-70
2022/05/24 12:20:47;;;;;;;15.77;5.80;;;12.10;99.90;;;;;;5072656;28;20213;-70
2022/05/24 12:23:37;;;;;;;7.20;5.73;;;12.20;99.90;;;;;;5072885;28;20171;-69
2022/05/24 12:26:07;;;;;;;6.00;4.73;;;12.10;99.90;;;;;;5072259;28;20723;-69
2022/05/24 12:28:37;;;;;;;8.27;5.00;;;12.00;99.90;;;;;;5070290;28;20264;-70
2022/05/24 12:31:22;;;;;;;7.23;4.70;;;12.00;99.90;;;;;;5072369;28;20600;-70
2022/05/24 12:34:14;;;;;;;6.57;4.33;;;12.10;99.90;;;;;;5070263;28;20601;-70
2022/05/24 12:36:45;;;;;;;5.47;4.67;;;12.20;99.90;;;;;;5073125;28;20183;-69
2022/05/24 12:39:17;;;;;;;7.37;4.73;;;12.20;99.90;;;;;;5072677;28;20264;-69
2022/05/24 12:41:52;;;;;;;9.67;4.77;;;12.30;99.90;;;;;;5073135;28;20179;-69
2022/05/24 12:44:23;;;;;;;5.93;4.33;;;12.40;99.90;;;;;;5072818;28;20677;-69
2022/05/24 12:46:52;;;;;;;8.33;5.20;;;12.50;99.90;;;;;;5072815;28;20236;-70
2022/05/24 12:49:26;;;;;;;6.83;5.00;;;12.40;99.90;;;;;;5072789;28;20194;-70
2022/05/24 12:52:16;;;;;;;8.67;4.93;;;12.30;99.90;;;;;;5073131;28;20172;-69
2022/05/24 12:54:54;;;;;;;9.43;5.00;;;12.30;99.90;;;;;;5073123;28;20258;-70
2022/05/24 12:57:44;;;;;;;10.33;4.60;;;12.20;99.90;;;;;;5072677;28;20174;-69
2022/05/24 13:00:19;;;;;;;8.20;4.40;;;12.10;99.90;;;;;;5060058;28;20219;-69
2022/05/24 13:02:49;;;;;;;7.87;5.20;;;12.00;99.90;;;;;;5072811;28;20189;-69
2022/05/24 13:05:18;;;;;;;7.60;5.13;;;12.00;99.90;;;;;;5072967;28;20185;-70
2022/05/24 13:08:03;;;;;;;7.47;4.83;;;11.90;99.90;;;;;;5072617;28;20182;-70
2022/05/24 13:10:36;;;;;;;8.83;4.23;;;11.90;99.90;;;;;;5073018;28;20693;-71
2022/05/24 13:13:14;;;;;;;8.17;5.03;;;11.80;99.90;;;;;;5072823;28;20178;-70
2022/05/24 13:15:58;;;;;;;4.33;3.47;;;11.70;99.90;;;;;;5072368;28;20190;-70
2022/05/24 13:18:29;;;;;;;4.23;3.83;;;11.70;99.90;;;;;;5072661;28;20192;-70
2022/05/24 13:21:00;;;;;;;6.63;3.63;;;11.60;99.90;;;;;;5073000;28;20305;-71
2022/05/24 13:23:36;;;;;;;6.77;3.77;;;11.50;99.90;;;;;;5073334;28;20188;-70
2022/05/24 13:26:06;;;;;;;5.33;4.27;;;11.50;99.90;;;;;;5072911;28;20183;-70
2022/05/24 13:28:40;;;;;;;6.53;3.73;;;11.40;99.90;;;;;;5072644;28;20217;-70
2022/05/24 13:33:56;;;;;;;8.23;4.27;;;11.40;99.90;;;;;;5072269;28;20554;-70
2022/05/24 13:36:30;;;;;;;5.47;4.17;;;11.30;99.90;;;;;;5072683;28;20171;-70
2022/05/24 13:39:32;;;;;;;6.97;3.57;;;11.30;99.90;;;;;;5071852;28;20231;-70
2022/05/24 13:42:09;;;;;;;5.63;4.13;;;11.20;99.90;;;;;;5068475;28;20229;-69
2022/05/24 13:45:01;;;;;;;9.47;5.67;;;11.20;99.90;;;;;;5073272;28;20194;-70
2022/05/24 13:47:39;;;;;;;7.67;4.80;;;11.10;99.90;;;;;;5076217;28;20234;-70
2022/05/24 13:50:21;;;;;;;7.47;4.53;;;11.10;99.90;;;;;;5076149;28;20549;-70
2022/05/24 13:52:58;;;;;;;8.00;4.93;;;11.10;99.90;;;;;;5074903;28;20190;-69
2022/05/24 13:55:32;;;;;;;5.90;3.93;;;11.00;99.90;;;;;;5076765;28;20175;-71
2022/05/24 13:58:18;;;;;;;7.20;4.37;;;11.10;99.90;;;;;;5076399;28;20182;-70
2022/05/24 14:00:51;;;;;;;7.33;4.10;;;11.10;99.90;;;;;;5076164;28;20232;-70
2022/05/24 14:03:51;;;;;;;9.13;5.10;;;11.10;99.90;;;;;;5076273;28;20174;-70